Time;durP1;ratioP1;P1;durP2;ratioP2;P2;SDS_P1;SDS_P2;PMS_P1;PMS_P2;Temp;Humidity;BMP_temperature;BMP_pressure;BME280_temperature;BME280_humidity;BME280_pressure;Samples;Min_cycle;Max_cycle;Signal;HPM_P1;HPM_P2
2023/08/03 00:01:41;;;;;;;6.93;2.53;;;;;;;14.63;100.00;98827.28;4887862;29;20032;-96
2023/08/03 00:04:10;;;;;;;6.05;2.42;;;;;;;14.64;100.00;98833.56;4903288;29;20100;-96
2023/08/03 00:07:09;;;;;;;5.40;2.37;;;;;;;14.65;100.00;98835.19;4902420;29;20044;-96
2023/08/03 00:09:46;;;;;;;5.47;2.83;;;;;;;14.64;100.00;98819.91;4903509;29;20417;-96
2023/08/03 00:12:34;;;;;;;7.80;3.42;;;;;;;14.67;100.00;98854.78;4904323;29;20179;-95
2023/08/03 00:15:02;;;;;;;10.75;4.15;;;;;;;14.66;100.00;98845.81;4906364;29;20517;-95
2023/08/03 00:17:31;;;;;;;9.85;5.25;;;;;;;14.67;100.00;98830.22;4907762;29;20028;-94
2023/08/03 00:19:56;;;;;;;14.73;6.73;;;;;;;14.69;100.00;98852.56;4904709;29;20047;-95
2023/08/03 00:22:22;;;;;;;12.02;6.13;;;;;;;14.70;100.00;98841.41;4903963;29;20036;-94
2023/08/03 00:24:55;;;;;;;13.80;7.33;;;;;;;14.71;100.00;98847.66;4905898;29;20035;-95
2023/08/03 00:27:23;;;;;;;21.25;8.15;;;;;;;14.74;100.00;98850.59;4882992;29;20032;-94
2023/08/03 00:29:55;;;;;;;20.60;8.88;;;;;;;14.77;100.00;98862.06;4914501;29;20052;-94
2023/08/03 00:32:30;;;;;;;22.83;8.75;;;;;;;14.77;100.00;98857.41;4902068;29;20146;-94
2023/08/03 00:34:56;;;;;;;24.05;9.23;;;;;;;14.77;100.00;98865.59;4887737;29;20036;-95
2023/08/03 00:37:39;;;;;;;;;;;;;;;;;;;;;
2023/08/03 00:40:36;;;;;;;26.75;11.10;;;;;;;14.82;100.00;98879.19;4894316;29;20048;-96
2023/08/03 00:43:04;;;;;;;40.53;11.10;;;;;;;14.83;100.00;98885.47;4902720;29;20046;-94
2023/08/03 00:45:32;;;;;;;37.23;11.60;;;;;;;14.84;100.00;98904.28;4902354;29;20195;-94
2023/08/03 00:47:58;;;;;;;38.80;11.73;;;;;;;14.85;100.00;98910.53;4902266;29;20040;-93
2023/08/03 00:50:36;;;;;;;27.37;10.77;;;;;;;14.85;100.00;98902.34;4886873;29;20040;-94
2023/08/03 00:53:03;;;;;;;33.60;11.97;;;;;;;14.85;100.00;98911.38;4887872;29;20280;-95
2023/08/03 00:55:36;;;;;;;35.75;12.02;;;;;;;14.86;100.00;98912.97;4902229;29;20036;-95
2023/08/03 00:58:09;;;;;;;37.45;11.98;;;;;;;14.87;100.00;98917.34;4901909;29;20039;-93
2023/08/03 01:00:44;;;;;;;38.05;12.82;;;;;;;14.88;100.00;98918.16;4902587;29;20480;-94
2023/08/03 01:03:22;;;;;;;35.92;13.05;;;;;;;14.90;100.00;98926.88;4902069;29;20036;-94
2023/08/03 01:05:55;;;;;;;35.10;12.30;;;;;;;14.89;100.00;98926.03;4887865;29;20123;-94
2023/08/03 01:08:24;;;;;;;41.53;13.18;;;;;;;14.91;100.00;98940.25;4886762;29;20184;-94
2023/08/03 01:10:55;;;;;;;36.03;12.13;;;;;;;14.90;100.00;98933.13;4901341;29;20472;-94
2023/08/03 01:13:31;;;;;;;39.08;13.35;;;;;;;14.89;100.00;98938.91;4902071;29;20040;-94
2023/08/03 01:15:57;;;;;;;42.95;14.38;;;;;;;14.93;100.00;98941.88;4918464;29;20077;-94
2023/08/03 01:18:28;;;;;;;37.53;14.97;;;;;;;14.89;100.00;98941.63;4901785;29;20092;-94
2023/08/03 01:21:00;;;;;;;35.83;14.35;;;;;;;14.93;100.00;98950.06;4901738;29;20035;-94
2023/08/03 01:23:28;;;;;;;35.25;13.27;;;;;;;14.93;100.00;98955.53;4901395;29;20362;-94
2023/08/03 01:25:56;;;;;;;32.75;13.52;;;;;;;14.92;100.00;98968.34;4901908;29;20487;-94
2023/08/03 01:28:22;;;;;;;30.80;13.35;;;;;;;14.94;100.00;98971.63;4886444;29;20040;-94
2023/08/03 01:30:50;;;;;;;30.23;10.87;;;;;;;14.95;100.00;98975.94;4901771;29;20054;-93
2023/08/03 01:33:19;;;;;;;32.35;12.98;;;;;;;14.94;100.00;98968.06;4901665;29;20052;-93
2023/08/03 01:35:54;;;;;;;38.07;13.97;;;;;;;14.94;100.00;98971.63;4901944;29;20041;-94
2023/08/03 01:38:19;;;;;;;33.17;13.02;;;;;;;14.94;100.00;98976.25;4901577;29;20043;-93
2023/08/03 01:40:45;;;;;;;35.63;11.88;;;;;;;14.94;100.00;98985.28;4901299;29;20028;-94
2023/08/03 01:43:13;;;;;;;30.23;11.93;;;;;;;14.93;100.00;98980.91;4901432;29;20028;-94
2023/08/03 01:45:40;;;;;;;28.35;11.25;;;;;;;14.92;100.00;98987.47;4901859;29;20036;-93
2023/08/03 01:48:06;;;;;;;29.33;11.27;;;;;;;14.90;100.00;98985.03;4901442;29;20191;-93
2023/08/03 01:50:31;;;;;;;25.23;10.53;;;;;;;14.91;100.00;98983.09;4901536;29;20110;-93
2023/08/03 01:53:00;;;;;;;23.97;9.90;;;;;;;14.89;100.00;98975.19;4901705;29;20033;-93
2023/08/03 01:55:28;;;;;;;19.50;9.02;;;;;;;14.90;100.00;99006.88;4900966;29;20088;-93
2023/08/03 01:57:58;;;;;;;18.15;8.45;;;;;;;14.88;100.00;98981.78;4885849;29;20092;-95
2023/08/03 02:00:28;;;;;;;21.25;7.75;;;;;;;14.90;100.00;98973.28;4901653;29;20055;-94
2023/08/03 02:02:54;;;;;;;16.47;7.40;;;;;;;14.90;100.00;98974.09;4870974;29;20043;-95
2023/08/03 02:05:20;;;;;;;17.27;6.80;;;;;;;14.90;100.00;98981.50;4900880;29;20032;-94
2023/08/03 02:07:56;;;;;;;17.37;6.20;;;;;;;14.88;100.00;98987.25;4901440;29;20159;-94
2023/08/03 02:10:26;;;;;;;17.42;7.57;;;;;;;14.87;100.00;99007.44;4901964;29;20088;-94
2023/08/03 02:12:51;;;;;;;23.10;8.32;;;;;;;14.86;100.00;98983.16;4901921;29;20036;-96
2023/08/03 02:15:20;;;;;;;34.20;10.00;;;;;;;14.87;100.00;98984.78;4902271;29;20461;-96
2023/08/03 02:17:58;;;;;;;26.40;8.43;;;;;;;14.86;100.00;98983.97;4902991;29;20028;-96
2023/08/03 02:20:47;;;;;;;30.63;9.65;;;;;;;14.87;100.00;99009.38;4919694;29;20468;-96
2023/08/03 02:23:18;;;;;;;34.20;10.52;;;;;;;14.86;100.00;98967.59;4905671;29;20040;-96
2023/08/03 02:25:44;;;;;;;36.43;10.03;;;;;;;14.85;100.00;98981.53;4890616;29;20040;-96
2023/08/03 02:28:14;;;;;;;39.47;10.30;;;;;;;14.83;100.00;98970.09;4905785;29;20043;-96
2023/08/03 02:30:43;;;;;;;38.53;10.10;;;;;;;14.84;100.00;98969.81;4890406;29;20024;-95
2023/08/03 02:33:51;;;;;;;35.87;9.30;;;;;;;14.84;100.00;98983.44;4893823;29;20057;-96
2023/08/03 02:36:19;;;;;;;44.65;10.93;;;;;;;14.82;100.00;98979.38;4906662;29;20067;-96
2023/08/03 02:41:47;;;;;;;38.83;9.88;;;;;;;14.80;100.00;98978.88;4923223;29;20058;-96
2023/08/03 02:44:40;;;;;;;41.72;13.30;;;;;;;14.79;100.00;98988.16;4891302;29;20040;-96
2023/08/03 02:47:08;;;;;;;40.00;11.60;;;;;;;14.77;100.00;98980.25;4890354;29;20475;-96
2023/08/03 02:49:40;;;;;;;40.33;11.48;;;;;;;14.75;100.00;98971.53;4889994;29;20123;-95
2023/08/03 02:55:53;;;;;;;38.55;11.10;;;;;;;14.76;100.00;98983.25;4923721;29;20047;-96
2023/08/03 03:01:42;;;;;;;34.53;9.93;;;;;;;14.72;100.00;98993.97;4847867;29;20479;-96
2023/08/03 03:04:10;;;;;;;34.08;9.52;;;;;;;14.72;100.00;98996.69;4897873;29;20040;-96
2023/08/03 03:06:49;;;;;;;;;;;;;;;;;;;;;
2023/08/03 03:09:23;;;;;;;28.90;7.93;;;;;;;14.71;100.00;99000.50;4920580;29;20488;-94
2023/08/03 03:11:55;;;;;;;26.85;8.60;;;;;;;14.70;100.00;98999.72;4903791;29;20088;-94
2023/08/03 03:14:21;;;;;;;28.43;8.83;;;;;;;14.71;100.00;99022.34;4891599;29;20511;-95
2023/08/03 03:17:07;;;;;;;;;;;;;;;;;;;;;
2023/08/03 03:19:43;;;;;;;;;;;;;;;;;;;;;
2023/08/03 03:22:14;;;;;;;37.13;9.70;;;;;;;14.67;100.00;99026.75;4924760;29;20139;-94
2023/08/03 03:24:42;;;;;;;33.88;9.23;;;;;;;14.67;100.00;99016.63;4890093;29;20127;-95
2023/08/03 03:27:18;;;;;;;;;;;;;;;;;;;;;
2023/08/03 03:29:50;;;;;;;37.22;8.98;;;;;;;14.67;100.00;99030.28;4922607;29;20368;-94
2023/08/03 03:32:25;;;;;;;25.73;8.30;;;;;;;14.67;100.00;99018.56;4905045;29;20024;-94
2023/08/03 03:34:54;;;;;;;35.30;8.50;;;;;;;14.66;100.00;99058.69;4903747;29;20048;-94
2023/08/03 03:37:19;;;;;;;28.08;9.02;;;;;;;14.65;100.00;99034.41;4904882;29;20047;-93
2023/08/03 03:39:50;;;;;;;23.07;7.43;;;;;;;14.71;100.00;99036.00;4915266;29;20028;-94
2023/08/03 03:42:19;;;;;;;31.48;8.13;;;;;;;14.67;100.00;99043.94;4917889;29;20064;-95
2023/08/03 03:44:45;;;;;;;28.33;7.55;;;;;;;14.66;100.00;99034.13;4914633;29;20032;-94
2023/08/03 03:47:16;;;;;;;25.20;7.53;;;;;;;14.66;100.00;99025.94;4899423;29;20092;-93
2023/08/03 03:49:42;;;;;;;23.08;7.10;;;;;;;14.65;100.00;99050.81;4915953;29;20095;-94
2023/08/03 03:52:15;;;;;;;23.13;6.87;;;;;;;14.65;100.00;99075.38;4915585;29;20032;-94
2023/08/03 03:54:56;;;;;;;29.25;7.15;;;;;;;14.64;100.00;99054.63;4904233;29;20476;-94
2023/08/03 03:57:40;;;;;;;28.38;8.10;;;;;;;14.63;100.00;99072.09;4888506;29;20092;-95
2023/08/03 04:00:17;;;;;;;19.80;7.40;;;;;;;14.62;100.00;99075.94;4903199;29;20055;-94
2023/08/03 04:02:50;;;;;;;21.75;6.80;;;;;;;14.62;100.00;99086.84;4905729;29;20036;-94
2023/08/03 04:05:20;;;;;;;27.67;7.45;;;;;;;14.62;100.00;99081.41;4888981;29;20040;-95
2023/08/03 04:07:58;;;;;;;17.50;7.30;;;;;;;14.62;100.00;99081.41;4888357;29;20475;-94
2023/08/03 04:10:42;;;;;;;;;;;;;;;;;;;;;
2023/08/03 04:13:11;;;;;;;26.80;8.07;;;;;;;14.61;100.00;99107.84;4919906;29;20034;-96
2023/08/03 04:15:42;;;;;;;19.88;7.07;;;;;;;14.62;100.00;99098.56;4902985;29;20043;-96
2023/08/03 04:18:10;;;;;;;27.17;7.23;;;;;;;14.62;100.00;99104.03;4903489;29;20028;-95
2023/08/03 04:20:42;;;;;;;20.13;7.70;;;;;;;14.62;100.00;99098.56;4902696;29;20094;-94
2023/08/03 04:23:12;;;;;;;23.13;7.90;;;;;;;14.63;100.00;99115.75;4902822;29;20107;-95
2023/08/03 04:25:48;;;;;;;19.33;7.45;;;;;;;14.63;100.00;99102.94;4903395;29;20039;-95
2023/08/03 04:28:49;;;;;;;20.42;7.85;;;;;;;14.64;100.00;99110.00;4888281;29;20032;-96
2023/08/03 04:31:16;;;;;;;31.73;7.67;;;;;;;14.65;100.00;99127.22;4917746;29;20032;-95
2023/08/03 04:33:44;;;;;;;21.50;7.95;;;;;;;14.65;100.00;99132.69;4902858;29;20028;-93
2023/08/03 04:36:15;;;;;;;27.17;7.90;;;;;;;14.65;100.00;99129.94;4902088;29;20499;-96
2023/08/03 04:38:44;;;;;;;16.23;6.40;;;;;;;14.64;100.00;99150.94;4903430;29;20051;-96
2023/08/03 04:41:21;;;;;;;;;;;;;;;;;;;;;
2023/08/03 04:44:06;;;;;;;23.70;6.40;;;;;;;14.67;100.00;99161.31;4919936;29;20031;-95
2023/08/03 04:46:39;;;;;;;18.52;5.80;;;;;;;14.67;100.00;99149.56;4916015;29;20067;-95
2023/08/03 04:49:14;;;;;;;17.10;6.32;;;;;;;14.66;100.00;99156.13;4902976;29;20074;-95
2023/08/03 04:51:46;;;;;;;13.07;5.72;;;;;;;14.64;100.00;99148.22;4902536;29;20039;-95
2023/08/03 04:54:17;;;;;;;12.93;5.45;;;;;;;14.66;100.00;99172.50;4902900;29;20071;-95
2023/08/03 04:57:15;;;;;;;15.50;6.60;;;;;;;14.65;100.00;99170.91;4886802;29;20060;-96
2023/08/03 04:59:49;;;;;;;13.85;6.20;;;;;;;14.65;100.00;99168.16;4881193;29;20043;-95
2023/08/03 05:02:25;;;;;;;14.05;6.95;;;;;;;14.67;100.00;99168.69;4887055;29;20123;-94
2023/08/03 05:04:50;;;;;;;13.88;7.28;;;;;;;14.66;100.00;99175.22;4886552;29;20051;-94
2023/08/03 05:07:22;;;;;;;15.87;6.50;;;;;;;14.66;100.00;99191.59;4901850;29;20028;-93
2023/08/03 05:09:57;;;;;;;14.88;6.53;;;;;;;14.65;100.00;99187.28;4902000;29;20028;-94
2023/08/03 05:12:29;;;;;;;21.15;5.85;;;;;;;14.66;100.00;99184.25;4886614;29;20072;-94
2023/08/03 05:15:03;;;;;;;14.50;4.72;;;;;;;14.65;100.00;99198.19;4886159;29;20039;-93
2023/08/03 05:17:42;;;;;;;13.77;4.73;;;;;;;14.63;100.00;99190.28;4886948;29;20035;-94
2023/08/03 05:20:18;;;;;;;9.77;3.50;;;;;;;14.67;100.00;99210.44;4904151;29;20080;-94
2023/08/03 05:22:53;;;;;;;17.45;5.28;;;;;;;14.66;100.00;99225.19;4886246;29;20139;-94
2023/08/03 05:25:31;;;;;;;30.38;5.72;;;;;;;14.65;100.00;99225.47;4885643;29;20060;-94
2023/08/03 05:27:56;;;;;;;12.50;4.40;;;;;;;14.62;100.00;99218.66;4901728;29;20453;-94
2023/08/03 05:30:51;;;;;;;13.90;5.00;;;;;;;14.62;100.00;99218.66;4901799;29;20063;-96
2023/08/03 05:33:17;;;;;;;17.08;4.70;;;;;;;14.70;100.00;99230.91;4901878;29;20165;-96
2023/08/03 05:35:44;;;;;;;19.00;5.20;;;;;;;14.71;100.00;99236.06;4901641;29;20556;-95
2023/08/03 05:38:17;;;;;;;17.15;5.05;;;;;;;14.71;100.00;99243.47;4886432;29;20037;-96
2023/08/03 05:40:43;;;;;;;23.38;5.55;;;;;;;14.68;100.00;99241.28;4886035;29;20068;-96
2023/08/03 05:43:14;;;;;;;14.37;4.53;;;;;;;14.66;100.00;99232.56;4901914;29;20092;-96
2023/08/03 05:45:53;;;;;;;18.10;4.55;;;;;;;14.69;100.00;99249.19;4893951;29;20032;-96
2023/08/03 05:48:30;;;;;;;16.55;4.47;;;;;;;14.69;100.00;99249.19;4904868;29;20032;-96
2023/08/03 05:54:58;;;;;;;16.77;3.88;;;;;;;14.65;100.00;99259.03;4914805;29;20437;-94
2023/08/03 06:00:59;;;;;;;14.45;4.05;;;;;;;14.68;100.00;99272.13;4846207;29;20474;-96
2023/08/03 06:03:30;;;;;;;16.02;4.75;;;;;;;14.60;100.00;99271.88;4864321;29;20060;-96
2023/08/03 06:09:25;;;;;;;14.60;3.50;;;;;;;14.61;100.00;99288.00;4842762;29;20420;-96
2023/08/03 06:12:01;;;;;;;19.43;3.87;;;;;;;14.67;100.00;99296.97;4880683;29;20048;-96
2023/08/03 06:14:37;;;;;;;17.60;3.85;;;;;;;14.72;100.00;99288.78;4888867;29;20025;-96
2023/08/03 06:17:06;;;;;;;13.48;3.75;;;;;;;14.71;100.00;99298.84;4874488;29;20040;-96
2023/08/03 06:20:13;;;;;;;16.10;3.88;;;;;;;14.74;100.00;99298.28;4878174;29;20033;-96
2023/08/03 06:22:41;;;;;;;14.10;3.40;;;;;;;14.77;100.00;99299.66;4882691;29;20036;-96
2023/08/03 06:25:23;;;;;;;;;;;;;;;;;;;;;
2023/08/03 06:28:11;;;;;;;13.60;3.65;;;;;;;14.76;100.00;99308.13;4892304;29;20123;-96
2023/08/03 06:30:59;;;;;;;18.30;4.10;;;;;;;14.76;100.00;99311.66;4891417;29;20135;-96
2023/08/03 06:34:09;;;;;;;16.70;3.35;;;;;;;14.77;100.00;99307.84;4877020;29;20070;-96
2023/08/03 06:36:52;;;;;;;;;;;;;;;;;;;;;
2023/08/03 06:39:29;;;;;;;19.13;4.07;;;;;;;14.76;100.00;99319.84;4890861;29;20145;-96
2023/08/03 06:42:08;;;;;;;;;;;;;;;;;;;;;
2023/08/03 06:44:41;;;;;;;14.65;4.97;;;;;;;14.74;100.00;99330.25;4902808;29;20042;-96
2023/08/03 06:47:17;;;;;;;;;;;;;;;;;;;;;
2023/08/03 06:50:01;;;;;;;12.27;4.53;;;;;;;14.72;100.00;99332.44;4902114;29;20047;-96
2023/08/03 06:55:46;;;;;;;;;;;;;;;;;;;;;
2023/08/03 06:59:07;;;;;;;;;;;;;;;;;;;;;
2023/08/03 07:02:19;;;;;;;10.52;2.75;;;;;;;14.93;100.00;99368.66;4903157;29;20561;-96
2023/08/03 07:05:04;;;;;;;19.73;3.00;;;;;;;15.00;100.00;99365.59;4887615;29;20032;-96
2023/08/03 07:07:37;;;;;;;9.43;2.30;;;;;;;15.09;100.00;99380.34;4870754;29;20044;-96
2023/08/03 07:10:35;;;;;;;11.82;1.98;;;;;;;15.15;100.00;99383.84;4871462;29;20553;-96
2023/08/03 07:16:44;;;;;;;7.95;1.88;;;;;;;15.35;100.00;99402.84;4829986;29;20051;-96
2023/08/03 07:20:00;;;;;;;6.03;1.52;;;;;;;15.36;100.00;99399.03;4890559;29;20044;-96
2023/08/03 07:23:11;;;;;;;9.23;2.23;;;;;;;15.48;100.00;99401.41;4833444;29;20041;-97
2023/08/03 07:51:27;;;;;;;10.35;1.77;;;;;;;16.01;100.00;99443.72;4650825;30;20097;-96
2023/08/03 08:03:36;;;;;;;11.10;1.83;;;;;;;15.65;100.00;99452.13;5339001;23;20440;-96
2023/08/03 08:06:20;;;;;;;14.68;1.80;;;;;;;15.56;100.00;99447.28;4921224;29;20095;-96
2023/08/03 08:08:58;;;;;;;10.52;2.00;;;;;;;15.50;100.00;99461.25;4922246;29;20092;-96
2023/08/03 08:11:44;;;;;;;12.23;2.30;;;;;;;15.45;100.00;99489.44;4922088;29;20062;-96
2023/08/03 08:14:20;;;;;;;8.68;1.83;;;;;;;15.39;100.00;99490.56;4921337;29;20046;-96
2023/08/03 08:17:01;;;;;;;13.80;2.30;;;;;;;15.35;100.00;99484.81;4921726;29;20078;-96
2023/08/03 08:26:42;;;;;;;10.10;2.10;;;;;;;15.36;100.00;99510.25;4939251;29;20047;-96
2023/08/03 08:29:19;;;;;;;10.43;2.17;;;;;;;15.37;100.00;99518.16;4906557;29;20048;-96
2023/08/03 08:31:55;;;;;;;8.18;1.80;;;;;;;15.37;100.00;99500.97;4906470;29;20035;-96
2023/08/03 08:34:49;;;;;;;8.48;1.63;;;;;;;15.37;100.00;99520.09;4921881;29;20095;-96
2023/08/03 08:37:30;;;;;;;10.02;1.92;;;;;;;15.39;100.00;99526.91;4918792;29;20388;-96
2023/08/03 08:40:01;;;;;;;9.90;1.90;;;;;;;15.46;100.00;99550.38;4922179;29;20039;-96
2023/08/03 08:42:40;;;;;;;10.27;1.80;;;;;;;15.57;100.00;99551.97;4920970;29;20044;-96
2023/08/03 08:45:43;;;;;;;9.80;1.77;;;;;;;15.65;100.00;99536.88;4921526;29;20027;-96
2023/08/03 08:48:22;;;;;;;6.95;1.77;;;;;;;15.64;100.00;99538.00;4921400;29;20091;-96
2023/08/03 08:51:11;;;;;;;8.20;1.17;;;;;;;15.74;100.00;99562.56;4920760;29;20027;-96
2023/08/03 08:53:54;;;;;;;7.67;1.00;;;;;;;15.82;100.00;99556.53;4905986;29;20044;-96
2023/08/03 08:56:32;;;;;;;5.88;1.45;;;;;;;15.87;100.00;99556.50;4921843;29;20194;-96
2023/08/03 08:59:06;;;;;;;5.93;0.93;;;;;;;15.74;100.00;99560.66;4905818;29;20042;-96
2023/08/03 09:02:03;;;;;;;4.05;1.30;;;;;;;15.67;100.00;99573.78;4921080;29;20549;-96
2023/08/03 09:05:02;;;;;;;;;;;;;;;;;;;;;
2023/08/03 09:08:03;;;;;;;3.03;0.80;;;;;;;15.39;100.00;99583.47;4937769;29;20035;-96
2023/08/03 09:13:06;;;;;;;6.72;1.23;;;;;;;15.36;100.00;99592.22;5103193;23;20059;-96
2023/08/03 09:15:40;;;;;;;3.67;1.20;;;;;;;15.37;100.00;99591.97;4920672;29;20043;-96
2023/08/03 09:18:12;;;;;;;5.45;0.95;;;;;;;15.48;100.00;99611.88;4920762;29;20023;-94
2023/08/03 09:20:50;;;;;;;4.10;1.50;;;;;;;15.61;100.00;99611.28;4920521;29;20032;-96
2023/08/03 09:23:39;;;;;;;3.38;0.80;;;;;;;15.69;100.00;99609.88;4921102;29;20028;-95
2023/08/03 09:26:25;;;;;;;2.95;0.82;;;;;;;15.72;100.00;99624.91;4919234;29;20059;-94
2023/08/03 09:29:13;;;;;;;2.85;1.13;;;;;;;15.74;100.00;99629.00;4919870;29;20068;-96
2023/08/03 09:31:41;;;;;;;4.15;1.10;;;;;;;15.78;100.00;99627.38;4907418;29;20042;-96
2023/08/03 09:34:19;;;;;;;5.37;1.33;;;;;;;15.85;100.00;99642.66;4924104;29;20034;-96
2023/08/03 09:37:06;;;;;;;7.53;1.60;;;;;;;15.90;100.00;99640.72;4923984;29;20030;-96
2023/08/03 09:39:36;;;;;;;7.93;1.85;;;;;;;15.98;100.00;99650.25;4924029;29;20035;-95
2023/08/03 09:42:03;;;;;;;7.50;1.85;;;;;;;16.12;100.00;99650.47;4924098;29;20023;-95
2023/08/03 09:44:48;;;;;;;8.73;1.98;;;;;;;16.28;100.00;99662.16;4924025;29;20036;-95
2023/08/03 09:48:06;;;;;;;10.47;2.03;;;;;;;16.44;100.00;99668.34;4924796;29;20035;-96
2023/08/03 09:50:34;;;;;;;5.78;2.00;;;;;;;16.64;100.00;99679.19;4914520;29;20048;-95
2023/08/03 09:53:27;;;;;;;;;;;;;;;;;;;;;
2023/08/03 09:56:17;;;;;;;9.40;1.88;;;;;;;16.34;100.00;99687.56;4940708;29;20453;-96
2023/08/03 09:59:03;;;;;;;9.23;2.38;;;;;;;16.38;100.00;99689.47;4909021;29;20042;-96
2023/08/03 10:02:03;;;;;;;13.63;2.57;;;;;;;16.45;100.00;99698.19;4924477;29;20040;-96
2023/08/03 10:05:14;;;;;;;10.45;2.63;;;;;;;16.57;100.00;99702.50;4919172;29;20055;-96
2023/08/03 10:08:14;;;;;;;;;;;;;;;;;;;;;
2023/08/03 10:11:03;;;;;;;;;;;;;;;;;;;;;
2023/08/03 10:13:40;;;;;;;6.25;2.03;;;;;;;17.12;100.00;99716.91;4940746;29;20066;-96
2023/08/03 10:16:11;;;;;;;11.07;2.20;;;;;;;17.27;100.00;99729.69;4923449;29;20047;-96
2023/08/03 10:18:52;;;;;;;7.28;1.67;;;;;;;17.64;100.00;99733.75;4923905;29;20034;-96
2023/08/03 10:22:10;;;;;;;9.43;1.40;;;;;;;18.18;100.00;99729.03;4909297;29;20044;-96
2023/08/03 10:25:14;;;;;;;5.70;1.63;;;;;;;18.27;100.00;99740.19;4902394;29;20072;-96
2023/08/03 10:28:30;;;;;;;4.40;1.45;;;;;;;18.50;100.00;99734.94;4923851;29;20058;-96
2023/08/03 10:31:39;;;;;;;4.30;1.47;;;;;;;18.71;100.00;99741.78;4923073;29;20035;-96
2023/08/03 10:34:12;;;;;;;5.47;1.70;;;;;;;18.94;100.00;99733.78;4886106;29;20074;-96
2023/08/03 10:39:59;;;;;;;4.13;1.38;;;;;;;19.15;100.00;99753.53;4932102;29;20023;-96
2023/08/03 10:42:37;;;;;;;6.18;1.48;;;;;;;18.88;100.00;99745.97;4922840;29;20028;-96
2023/08/03 10:46:23;;;;;;;;;;;;;;;;;;;;;
2023/08/03 10:53:28;;;;;;;;;;;;;;;;;;;;;
2023/08/03 10:56:24;;;;;;;7.50;2.10;;;;;;;19.57;100.00;99757.22;4839855;29;20056;-96
2023/08/03 10:59:13;;;;;;;3.92;1.58;;;;;;;19.63;100.00;99755.19;4894512;29;20054;-96
2023/08/03 11:01:54;;;;;;;;;;;;;;;;;;;;;
2023/08/03 11:05:04;;;;;;;;;;;;;;;;;;;;;
2023/08/03 11:14:21;;;;;;;;;;;;;;;;;;;;;
2023/08/03 11:16:47;;;;;;;7.53;2.67;;;;;;;19.04;100.00;99805.09;4858511;29;20132;-96
2023/08/03 11:19:52;;;;;;;9.15;2.40;;;;;;;18.59;100.00;99805.41;4888966;29;20044;-96
2023/08/03 11:22:21;;;;;;;14.10;2.60;;;;;;;17.61;100.00;99797.41;4896164;29;20517;-96
2023/08/03 11:25:12;;;;;;;9.23;3.27;;;;;;;17.00;100.00;99806.91;4896889;29;20506;-96
2023/08/03 11:28:04;;;;;;;16.73;3.00;;;;;;;16.77;100.00;99805.63;4880689;29;20052;-96
2023/08/03 11:30:43;;;;;;;10.30;3.15;;;;;;;16.59;100.00;99818.03;4889665;29;20044;-96
2023/08/03 11:33:14;;;;;;;12.93;3.83;;;;;;;16.59;100.00;99815.31;4900029;29;20035;-95
2023/08/03 11:46:35;;;;;;;15.60;2.83;;;;;;;16.63;100.00;99857.47;4801034;29;20030;-94
2023/08/03 11:49:29;;;;;;;;;;;;;;;;;;;;;
2023/08/03 11:56:04;;;;;;;15.13;4.57;;;;;;;17.32;100.00;99893.31;4830080;29;20077;-96
2023/08/03 11:59:38;;;;;;;;;;;;;;;;;;;;;
2023/08/03 12:02:43;;;;;;;7.55;2.40;;;;;;;16.64;100.00;99909.22;4788872;30;20043;-96
2023/08/03 12:09:49;;;;;;;6.32;1.63;;;;;;;16.51;100.00;99939.91;4789109;30;20050;-96
2023/08/03 12:16:31;;;;;;;3.85;1.40;;;;;;;16.61;100.00;99963.72;4760107;30;20521;-96
2023/08/03 12:34:07;;;;;;;4.20;1.30;;;;;;;16.17;100.00;100022.63;4703322;30;20522;-96
2023/08/03 12:37:12;;;;;;;5.50;1.42;;;;;;;16.11;100.00;100023.72;4698749;30;20431;-96
2023/08/03 12:39:56;;;;;;;;;;;;;;;;;;;;;
2023/08/03 12:49:57;;;;;;;5.43;2.25;;;;;;;16.90;100.00;100050.78;4857946;29;20049;-96
2023/08/03 12:52:56;;;;;;;5.13;1.90;;;;;;;16.97;100.00;100048.59;4789717;29;20070;-96
2023/08/03 12:55:35;;;;;;;7.63;2.13;;;;;;;16.86;100.00;100057.88;4846289;29;20547;-96
2023/08/03 12:58:47;;;;;;;;;;;;;;;;;;;;;
2023/08/03 13:02:18;;;;;;;;;;;;;;;;;;;;;
2023/08/03 13:05:03;;;;;;;;;;;;;;;;;;;;;
2023/08/03 13:07:45;;;;;;;5.30;2.08;;;;;;;16.67;100.00;100097.63;4868284;29;20128;-94
2023/08/03 13:10:19;;;;;;;8.85;2.72;;;;;;;16.76;100.00;100102.56;4880882;29;20036;-95
2023/08/03 13:18:59;;;;;;;9.50;2.42;;;;;;;17.25;100.00;100123.06;4884915;29;20052;-96
2023/08/03 13:21:32;;;;;;;7.20;2.47;;;;;;;17.47;100.00;100129.03;4909634;29;20040;-96
2023/08/03 13:24:34;;;;;;;;;;;;;;;;;;;;;
2023/08/03 13:27:18;;;;;;;9.88;2.53;;;;;;;17.77;100.00;100135.50;4885787;29;20068;-95
2023/08/03 13:29:49;;;;;;;8.33;2.63;;;;;;;17.90;100.00;100145.09;4895909;29;20040;-96
2023/08/03 13:32:25;;;;;;;;;;;;;;;;;;;;;
2023/08/03 13:34:54;;;;;;;16.00;4.20;;;;;;;17.97;100.00;100161.25;4885962;29;20107;-94
2023/08/03 13:37:32;;;;;;;10.27;3.80;;;;;;;18.09;100.00;100147.22;4899240;29;20028;-96
2023/08/03 13:40:11;;;;;;;10.80;3.40;;;;;;;18.15;100.00;100146.88;4886198;29;20039;-95
2023/08/03 13:45:35;;;;;;;13.23;3.30;;;;;;;18.33;100.00;100156.38;4919267;29;20489;-96
2023/08/03 13:48:06;;;;;;;15.90;3.72;;;;;;;18.88;100.00;100167.28;4902292;29;20060;-95
2023/08/03 13:50:43;;;;;;;16.63;3.90;;;;;;;19.05;100.00;100169.59;4886603;29;20046;-94
2023/08/03 13:53:12;;;;;;;18.15;4.95;;;;;;;19.02;100.00;100163.88;4888008;29;20108;-96
2023/08/03 13:55:50;;;;;;;;;;;;;;;;;;;;;
2023/08/03 13:58:39;;;;;;;11.07;3.00;;;;;;;20.05;100.00;100180.13;4904031;29;20035;-96
2023/08/03 14:01:12;;;;;;;15.63;3.38;;;;;;;19.70;100.00;100189.59;4902004;29;20032;-96
2023/08/03 14:03:57;;;;;;;14.90;3.65;;;;;;;19.56;100.00;100181.22;4906752;29;20457;-96
2023/08/03 14:07:10;;;;;;;9.80;3.33;;;;;;;19.56;100.00;100197.72;4905107;29;20048;-96
2023/08/03 14:10:07;;;;;;;10.73;3.27;;;;;;;19.56;100.00;100201.31;4902340;29;20392;-96
2023/08/03 14:24:44;;;;;;;9.85;2.50;;;;;;;20.14;100.00;100229.84;4755349;30;20099;-97
2023/08/03 14:30:55;;;;;;;9.82;2.20;;;;;;;21.39;100.00;100227.69;4818177;23;20039;-96
2023/08/03 14:38:54;;;;;;;;;;;;;;;;;;;;;
2023/08/03 14:41:36;;;;;;;;;;;;;;;;;;;;;
2023/08/03 14:44:43;;;;;;;9.55;1.98;;;;;;;24.99;76.47;100251.25;4924948;29;20046;-95
2023/08/03 14:47:57;;;;;;;;;;;;;;;;;;;;;
2023/08/03 14:50:22;;;;;;;58.90;4.28;;;;;;;22.27;87.80;100265.53;4925807;29;20039;-95
2023/08/03 14:52:48;;;;;;;9.97;2.20;;;;;;;21.67;87.52;100271.94;4923426;29;20063;-93
2023/08/03 14:55:13;;;;;;;10.73;2.47;;;;;;;21.71;86.98;100282.06;4938510;29;20381;-90
2023/08/03 15:01:19;;;;;;;;;;;;;;;;;;;;;
2023/08/03 15:03:48;;;;;;;7.78;1.90;;;;;;;25.09;74.18;100278.66;4911538;29;20036;-93
2023/08/03 15:06:18;;;;;;;7.10;1.80;;;;;;;27.40;66.67;100280.50;4906627;29;20050;-92
2023/08/03 15:08:51;;;;;;;7.80;2.65;;;;;;;29.08;60.04;100280.72;4922582;29;20028;-93
2023/08/03 15:11:36;;;;;;;7.90;2.35;;;;;;;30.32;53.18;100291.19;4906654;29;20482;-92
2023/08/03 15:17:37;;;;;;;9.05;2.42;;;;;;;29.40;52.99;100287.22;4885293;29;20043;-94
2023/08/03 15:20:14;;;;;;;10.00;2.10;;;;;;;27.97;61.98;100294.81;4919269;29;20538;-94
2023/08/03 15:22:58;;;;;;;7.18;2.30;;;;;;;27.13;63.54;100287.44;4906628;29;20064;-95
2023/08/03 15:25:35;;;;;;;7.63;2.17;;;;;;;26.87;66.50;100294.06;4887482;29;20099;-91
2023/08/03 15:28:23;;;;;;;;;;;;;;;;;;;;;
2023/08/03 15:31:13;;;;;;;12.63;2.92;;;;;;;29.46;58.00;100306.53;4919386;29;20034;-93
2023/08/03 15:33:44;;;;;;;7.43;1.90;;;;;;;30.20;52.78;100303.28;4902973;29;20044;-93
2023/08/03 15:36:15;;;;;;;6.45;2.28;;;;;;;29.97;49.60;100305.91;4904260;29;20035;-94
2023/08/03 15:42:05;;;;;;;4.87;1.80;;;;;;;27.77;53.67;100314.03;4897284;29;20041;-94
2023/08/03 15:44:50;;;;;;;8.15;2.00;;;;;;;26.78;54.00;100326.66;4869249;29;20036;-94
2023/08/03 15:47:31;;;;;;;;;;;;;;;;;;;;;
2023/08/03 15:50:02;;;;;;;7.28;2.38;;;;;;;27.27;55.41;100331.72;4885968;29;20039;-95
2023/08/03 15:52:35;;;;;;;13.70;2.33;;;;;;;26.47;56.42;100338.13;4854024;29;20098;-95
2023/08/03 15:55:04;;;;;;;8.73;1.70;;;;;;;26.03;58.13;100335.56;4868851;29;20148;-95
2023/08/03 15:57:37;;;;;;;5.07;1.92;;;;;;;26.05;55.83;100341.59;4869020;29;20096;-95